Terminal Aerodrome Forecast
Issued by NWS

Home | Current Version | Previous Version | Text Only | Print | Product List | Glossary On
Versions: 1 2 3 4 5 6 7 8 9 10 11 12 13
000
FTAK31 PAFA 310001 RRA
TAFATA
TAF
PATA 310001Z 3100/3124 21008KT P6SM -RA SCT010 BKN020 OVC040
     FM310300 20008KT 3SM -RA BR BKN015
     FM310800 25008KT 2SM -RA BR OVC010
     FM311600 27006KT P6SM -SHRA OVC025
     FM312100 27008KT P6SM VCSH SCT025 BKN040=

USA.gov is the U.S. government's official web portal to all federal, state and local government web resources and services.